Time;durP1;ratioP1;P1;durP2;ratioP2;P2;SDS_P1;SDS_P2;PMS_P1;PMS_P2;Temp;Humidity;BMP_temperature;BMP_pressure;BME280_temperature;BME280_humidity;BME280_pressure;Samples;Min_cycle;Max_cycle;Signal;HPM_P1;HPM_P2
2022/03/08 00:02:14;;;;;;;50.42;21.58;;;;;;;;;;4967995;28;100240;-72
2022/03/08 00:04:41;;;;;;;61.13;21.58;;;;;;;;;;4970743;28;101084;-72
2022/03/08 00:07:08;;;;;;;57.42;25.27;;;;;;;;;;4954633;28;100280;-72
2022/03/08 00:09:35;;;;;;;51.83;22.08;;;;;;;;;;4987414;28;100016;-72
2022/03/08 00:12:02;;;;;;;39.25;17.92;;;;;;;;;;4971265;28;100172;-72
2022/03/08 00:14:29;;;;;;;43.97;19.42;;;;;;;;;;4971612;28;100626;-72
2022/03/08 00:16:56;;;;;;;47.78;20.35;;;;;;;;;;4955016;28;100121;-72
2022/03/08 00:19:23;;;;;;;60.00;24.27;;;;;;;;;;4955241;28;100049;-73
2022/03/08 00:21:50;;;;;;;48.00;20.50;;;;;;;;;;4954382;28;100277;-73
2022/03/08 00:24:16;;;;;;;54.92;23.90;;;;;;;;;;4954575;28;100510;-72
2022/03/08 00:26:43;;;;;;;45.28;19.17;;;;;;;;;;4971396;28;100125;-72
2022/03/08 00:29:11;;;;;;;49.85;19.23;;;;;;;;;;4971309;28;100128;-72
2022/03/08 00:31:37;;;;;;;46.95;19.75;;;;;;;;;;4970670;28;103536;-73
2022/03/08 00:34:07;;;;;;;48.85;19.90;;;;;;;;;;4970831;28;100913;-72
2022/03/08 00:36:34;;;;;;;45.58;18.70;;;;;;;;;;4972450;28;100029;-72
2022/03/08 00:39:01;;;;;;;59.72;24.90;;;;;;;;;;4971344;28;100173;-73
2022/03/08 00:41:27;;;;;;;50.55;21.45;;;;;;;;;;4971746;28;100824;-72
2022/03/08 00:43:54;;;;;;;54.95;20.33;;;;;;;;;;4970546;28;101486;-73
2022/03/08 00:46:22;;;;;;;41.33;18.48;;;;;;;;;;4970304;28;100121;-73
2022/03/08 00:48:51;;;;;;;62.08;24.83;;;;;;;;;;4968283;28;100041;-72
2022/03/08 00:51:19;;;;;;;52.13;21.13;;;;;;;;;;4953653;28;102486;-73
2022/03/08 00:53:46;;;;;;;45.28;20.13;;;;;;;;;;4986246;28;100548;-72
2022/03/08 00:56:20;;;;;;;49.90;23.33;;;;;;;;;;4952996;28;100179;-72
2022/03/08 00:58:46;;;;;;;;;;;;;;;;;;4970031;28;100129;-72
2022/03/08 01:01:13;;;;;;;36.67;14.82;;;;;;;;;;4969845;28;100422;-72
2022/03/08 01:03:40;;;;;;;47.50;18.83;;;;;;;;;;4937042;28;100972;-73
2022/03/08 01:06:07;;;;;;;52.22;21.45;;;;;;;;;;4970956;28;100147;-72
2022/03/08 01:08:34;;;;;;;54.65;22.83;;;;;;;;;;4969088;28;100205;-72
2022/03/08 01:11:01;;;;;;;42.65;19.55;;;;;;;;;;4936774;28;100154;-72
2022/03/08 01:13:30;;;;;;;50.88;21.08;;;;;;;;;;4952984;28;100692;-72
2022/03/08 01:15:57;;;;;;;45.28;19.25;;;;;;;;;;4953314;28;100198;-72
2022/03/08 01:18:24;;;;;;;45.03;18.48;;;;;;;;;;4937020;28;100148;-73
2022/03/08 01:20:52;;;;;;;54.38;22.42;;;;;;;;;;4969079;28;100860;-72
2022/03/08 01:23:19;;;;;;;64.80;26.08;;;;;;;;;;4969029;28;101801;-71
2022/03/08 01:25:46;;;;;;;56.20;23.48;;;;;;;;;;4967724;28;100241;-74
2022/03/08 01:28:13;;;;;;;50.38;20.67;;;;;;;;;;4953018;28;100086;-72
2022/03/08 01:30:39;;;;;;;64.53;24.20;;;;;;;;;;4970379;28;100701;-72
2022/03/08 01:33:06;;;;;;;46.15;17.73;;;;;;;;;;4968937;28;103643;-72
2022/03/08 01:35:34;;;;;;;47.40;20.30;;;;;;;;;;4934787;28;100090;-71
2022/03/08 01:38:00;;;;;;;44.08;19.88;;;;;;;;;;4969355;28;100068;-73
2022/03/08 01:40:29;;;;;;;44.55;18.00;;;;;;;;;;4937116;28;100423;-72
2022/03/08 01:42:56;;;;;;;48.50;19.88;;;;;;;;;;4968442;28;100566;-76
2022/03/08 01:45:24;;;;;;;58.28;22.55;;;;;;;;;;4969397;28;100063;-72
2022/03/08 01:47:51;;;;;;;45.58;18.70;;;;;;;;;;4935802;28;100253;-72
2022/03/08 01:50:18;;;;;;;45.10;19.20;;;;;;;;;;4968308;28;100172;-73
2022/03/08 01:52:45;;;;;;;37.10;16.90;;;;;;;;;;4968615;28;100831;-74
2022/03/08 01:55:12;;;;;;;48.08;19.20;;;;;;;;;;4952938;28;100068;-73
2022/03/08 01:57:39;;;;;;;45.72;19.52;;;;;;;;;;4953262;28;100133;-72
2022/03/08 02:00:08;;;;;;;46.80;19.95;;;;;;;;;;4969762;28;100283;-73
2022/03/08 02:02:39;;;;;;;52.47;21.48;;;;;;;;;;4969348;28;101138;-72
2022/03/08 02:05:06;;;;;;;48.97;20.38;;;;;;;;;;4969442;28;100131;-72
2022/03/08 02:07:33;;;;;;;48.67;20.67;;;;;;;;;;4969219;28;100199;-73
2022/03/08 02:10:00;;;;;;;51.50;22.45;;;;;;;;;;4953183;28;100250;-72
2022/03/08 02:12:27;;;;;;;62.53;24.15;;;;;;;;;;4969156;28;100694;-72
2022/03/08 02:14:53;;;;;;;54.55;21.45;;;;;;;;;;4969551;28;102322;-73
2022/03/08 02:17:20;;;;;;;49.50;20.15;;;;;;;;;;4971027;28;99942;-72
2022/03/08 02:19:47;;;;;;;47.13;20.75;;;;;;;;;;4970498;28;100441;-73
2022/03/08 02:22:14;;;;;;;49.35;20.88;;;;;;;;;;4985532;28;100541;-73
2022/03/08 02:24:41;;;;;;;56.17;23.50;;;;;;;;;;4952102;28;100217;-72
2022/03/08 02:27:08;;;;;;;54.85;21.60;;;;;;;;;;4952624;28;99839;-72
2022/03/08 02:29:35;;;;;;;51.78;20.92;;;;;;;;;;4969187;28;100543;-72
2022/03/08 02:32:01;;;;;;;49.17;20.27;;;;;;;;;;4952611;28;100612;-72
2022/03/08 02:34:28;;;;;;;48.47;20.40;;;;;;;;;;4953018;28;100083;-72
2022/03/08 02:37:06;;;;;;;55.75;23.73;;;;;;;;;;4969064;28;100111;-72
2022/03/08 02:39:33;;;;;;;51.08;21.58;;;;;;;;;;4968818;28;100777;-73
2022/03/08 02:42:00;;;;;;;50.83;22.70;;;;;;;;;;4985291;28;100599;-72
2022/03/08 02:44:27;;;;;;;70.43;26.60;;;;;;;;;;4970394;28;100229;-72
2022/03/08 02:46:54;;;;;;;59.22;22.63;;;;;;;;;;4952706;28;100112;-73
2022/03/08 02:49:21;;;;;;;49.28;20.58;;;;;;;;;;4968371;28;102356;-73
2022/03/08 02:51:48;;;;;;;56.38;21.52;;;;;;;;;;4952646;28;100566;-73
2022/03/08 02:54:15;;;;;;;72.68;25.00;;;;;;;;;;4952526;28;100123;-73
2022/03/08 02:56:42;;;;;;;55.75;23.15;;;;;;;;;;4969966;28;100055;-74
2022/03/08 02:59:09;;;;;;;52.13;22.00;;;;;;;;;;4952755;28;100235;-73
2022/03/08 03:01:36;;;;;;;63.40;24.90;;;;;;;;;;4969278;28;100804;-73
2022/03/08 03:04:03;;;;;;;54.35;22.70;;;;;;;;;;4969785;28;100044;-73
2022/03/08 03:06:31;;;;;;;51.75;20.73;;;;;;;;;;4972266;28;99946;-73
2022/03/08 03:08:58;;;;;;;57.72;24.77;;;;;;;;;;4936110;28;100202;-73
2022/03/08 03:11:25;;;;;;;63.63;24.60;;;;;;;;;;4969813;28;100593;-73
2022/03/08 03:13:51;;;;;;;55.15;21.52;;;;;;;;;;4968297;28;100066;-73
2022/03/08 03:16:18;;;;;;;39.80;17.88;;;;;;;;;;4966163;28;100036;-72
2022/03/08 03:18:45;;;;;;;52.35;22.35;;;;;;;;;;4984593;28;100365;-72
2022/03/08 03:21:12;;;;;;;50.15;20.48;;;;;;;;;;4968464;28;100660;-73
2022/03/08 03:23:39;;;;;;;42.05;18.35;;;;;;;;;;4952499;28;100134;-73
2022/03/08 03:26:05;;;;;;;57.15;21.02;;;;;;;;;;4968604;28;100109;-74
2022/03/08 03:28:32;;;;;;;53.75;20.20;;;;;;;;;;4969756;28;100149;-73
2022/03/08 03:30:59;;;;;;;58.05;21.80;;;;;;;;;;4969192;28;100615;-73
2022/03/08 03:33:26;;;;;;;54.42;21.27;;;;;;;;;;4969923;28;100026;-73
2022/03/08 03:35:53;;;;;;;79.65;29.15;;;;;;;;;;4968985;28;100058;-72
2022/03/08 03:38:20;;;;;;;51.22;20.88;;;;;;;;;;4968219;28;100532;-72
2022/03/08 03:40:46;;;;;;;54.47;23.05;;;;;;;;;;4969215;28;100814;-73
2022/03/08 03:43:13;;;;;;;53.30;22.05;;;;;;;;;;4945267;28;99961;-73
2022/03/08 03:45:40;;;;;;;49.53;20.52;;;;;;;;;;4969336;28;100039;-72
2022/03/08 03:48:07;;;;;;;56.80;23.17;;;;;;;;;;4969505;28;100266;-72
2022/03/08 03:50:34;;;;;;;59.42;23.92;;;;;;;;;;4951933;28;100605;-71
2022/03/08 03:53:00;;;;;;;64.30;25.00;;;;;;;;;;4952407;28;100220;-71
2022/03/08 03:55:27;;;;;;;70.80;27.02;;;;;;;;;;4969858;28;100120;-71
2022/03/08 03:57:54;;;;;;;124.40;44.85;;;;;;;;;;4968010;28;100141;-72
2022/03/08 04:00:21;;;;;;;201.73;59.92;;;;;;;;;;4968493;28;101130;-72
2022/03/08 04:02:48;;;;;;;208.75;64.63;;;;;;;;;;4951820;28;100237;-71
2022/03/08 04:05:15;;;;;;;160.98;52.22;;;;;;;;;;4984413;28;100175;-71
2022/03/08 04:07:42;;;;;;;135.93;46.75;;;;;;;;;;4968951;28;100338;-71
2022/03/08 04:10:10;;;;;;;163.88;54.80;;;;;;;;;;4969386;28;100472;-71
2022/03/08 04:12:37;;;;;;;153.65;49.53;;;;;;;;;;4967544;28;100125;-72
2022/03/08 04:15:04;;;;;;;122.88;41.90;;;;;;;;;;4969783;28;100310;-71
2022/03/08 04:17:31;;;;;;;99.97;34.13;;;;;;;;;;4968970;28;100077;-72
2022/03/08 04:19:57;;;;;;;114.00;41.15;;;;;;;;;;4969361;28;100690;-71
2022/03/08 04:22:24;;;;;;;87.68;33.47;;;;;;;;;;4968238;28;100016;-71
2022/03/08 04:24:56;;;;;;;79.15;28.83;;;;;;;;;;4952388;28;100020;-72
2022/03/08 04:27:23;;;;;;;79.03;29.77;;;;;;;;;;4950989;28;102986;-71
2022/03/08 04:29:50;;;;;;;91.07;32.20;;;;;;;;;;4967716;28;101066;-72
2022/03/08 04:32:17;;;;;;;93.88;31.90;;;;;;;;;;4984741;28;99992;-71
2022/03/08 04:34:44;;;;;;;76.30;29.75;;;;;;;;;;4968042;28;100108;-71
2022/03/08 04:37:10;;;;;;;74.82;28.95;;;;;;;;;;4968682;28;100237;-71
2022/03/08 04:39:37;;;;;;;87.05;28.90;;;;;;;;;;4968136;28;100733;-71
2022/03/08 04:42:04;;;;;;;76.85;27.67;;;;;;;;;;4966804;28;99976;-71
2022/03/08 04:44:31;;;;;;;64.93;26.40;;;;;;;;;;4968138;28;100099;-71
2022/03/08 04:46:58;;;;;;;89.60;33.13;;;;;;;;;;4967795;28;100533;-71
2022/03/08 04:49:25;;;;;;;71.22;25.02;;;;;;;;;;4968843;28;100767;-71
2022/03/08 04:51:52;;;;;;;67.63;26.55;;;;;;;;;;4971535;28;100129;-72
2022/03/08 04:54:18;;;;;;;67.18;27.25;;;;;;;;;;4971159;28;99958;-71
2022/03/08 04:56:46;;;;;;;66.90;24.17;;;;;;;;;;4970555;28;100078;-72
2022/03/08 04:59:13;;;;;;;54.70;22.08;;;;;;;;;;4971956;28;100569;-72
2022/03/08 05:01:40;;;;;;;55.88;22.58;;;;;;;;;;4971188;28;100409;-72
2022/03/08 05:04:07;;;;;;;51.38;21.60;;;;;;;;;;4971136;28;100046;-72
2022/03/08 05:06:34;;;;;;;55.33;21.05;;;;;;;;;;4971386;28;101575;-72
2022/03/08 05:09:02;;;;;;;48.08;19.38;;;;;;;;;;4987204;28;101055;-72
2022/03/08 05:11:28;;;;;;;53.80;21.08;;;;;;;;;;4971151;28;100027;-72
2022/03/08 05:13:55;;;;;;;56.35;22.00;;;;;;;;;;4970399;28;100098;-72
2022/03/08 05:16:22;;;;;;;65.20;25.33;;;;;;;;;;4969304;28;100332;-72
2022/03/08 05:18:49;;;;;;;55.00;22.23;;;;;;;;;;4970588;28;100618;-71
2022/03/08 05:21:16;;;;;;;64.40;24.05;;;;;;;;;;4954309;28;99941;-75
2022/03/08 05:23:43;;;;;;;65.63;24.20;;;;;;;;;;4971732;28;100190;-71
2022/03/08 05:26:10;;;;;;;64.70;25.20;;;;;;;;;;4971433;28;100202;-71
2022/03/08 05:28:37;;;;;;;58.45;21.63;;;;;;;;;;4970045;28;100811;-71
2022/03/08 05:31:04;;;;;;;68.53;23.45;;;;;;;;;;4986620;28;100020;-71
2022/03/08 05:33:31;;;;;;;54.90;21.33;;;;;;;;;;4954607;28;100092;-71
2022/03/08 05:35:57;;;;;;;67.10;24.38;;;;;;;;;;4921165;28;102426;-71
2022/03/08 05:38:25;;;;;;;62.72;22.77;;;;;;;;;;4970793;28;100630;-71
2022/03/08 05:40:52;;;;;;;55.95;19.58;;;;;;;;;;4970684;28;100057;-71
2022/03/08 05:43:19;;;;;;;58.13;23.52;;;;;;;;;;4953451;28;100176;-71
2022/03/08 05:45:49;;;;;;;60.33;21.38;;;;;;;;;;4952615;28;102454;-72
2022/03/08 05:48:15;;;;;;;70.93;24.42;;;;;;;;;;4969849;28;100599;-71
2022/03/08 05:50:42;;;;;;;64.53;21.92;;;;;;;;;;4971196;28;101421;-71
2022/03/08 05:53:09;;;;;;;67.07;23.88;;;;;;;;;;4953587;28;100110;-72
2022/03/08 05:55:36;;;;;;;76.75;26.85;;;;;;;;;;4953090;28;100931;-72
2022/03/08 05:58:03;;;;;;;58.25;21.00;;;;;;;;;;4971089;28;100849;-72
2022/03/08 06:00:30;;;;;;;61.70;22.83;;;;;;;;;;4970323;28;100027;-73
2022/03/08 06:02:57;;;;;;;54.83;21.48;;;;;;;;;;4969760;28;100093;-72
2022/03/08 06:05:24;;;;;;;53.03;21.17;;;;;;;;;;4969538;28;100346;-73
2022/03/08 06:07:52;;;;;;;61.97;22.30;;;;;;;;;;4952751;28;101154;-73
2022/03/08 06:10:18;;;;;;;60.85;22.65;;;;;;;;;;4970425;28;100164;-73
2022/03/08 06:12:45;;;;;;;48.35;19.58;;;;;;;;;;4953319;28;100103;-72
2022/03/08 06:15:12;;;;;;;49.78;21.13;;;;;;;;;;4969465;28;100138;-72
2022/03/08 06:17:39;;;;;;;61.15;22.63;;;;;;;;;;4969961;28;100770;-72
2022/03/08 06:20:06;;;;;;;66.72;22.63;;;;;;;;;;4969572;28;100068;-73
2022/03/08 06:22:33;;;;;;;56.53;22.13;;;;;;;;;;4971367;28;100112;-72
2022/03/08 06:25:00;;;;;;;59.75;19.90;;;;;;;;;;4968911;28;100233;-73
2022/03/08 06:27:27;;;;;;;52.97;21.58;;;;;;;;;;4953075;28;100633;-73
2022/03/08 06:29:53;;;;;;;54.38;20.13;;;;;;;;;;4970037;28;100057;-73
2022/03/08 06:32:20;;;;;;;59.60;22.85;;;;;;;;;;4969757;28;100377;-73
2022/03/08 06:34:50;;;;;;;50.05;20.08;;;;;;;;;;4969118;28;100208;-72
2022/03/08 06:37:18;;;;;;;67.80;23.48;;;;;;;;;;4970230;28;100541;-72
2022/03/08 06:39:45;;;;;;;49.38;18.58;;;;;;;;;;4969441;28;100625;-72
2022/03/08 06:42:12;;;;;;;53.88;20.77;;;;;;;;;;4969101;28;100087;-72
2022/03/08 06:44:40;;;;;;;47.78;18.60;;;;;;;;;;4952680;28;100222;-73
2022/03/08 06:47:07;;;;;;;44.75;19.17;;;;;;;;;;4953080;28;101131;-72
2022/03/08 06:49:34;;;;;;;48.92;19.25;;;;;;;;;;4969869;28;100353;-72
2022/03/08 06:52:01;;;;;;;48.45;19.58;;;;;;;;;;4936561;28;100069;-73
2022/03/08 06:54:28;;;;;;;44.03;17.75;;;;;;;;;;4968492;28;100178;-72
2022/03/08 06:56:55;;;;;;;57.08;22.35;;;;;;;;;;4966153;28;100759;-72
2022/03/08 06:59:22;;;;;;;50.35;19.17;;;;;;;;;;4969940;28;100096;-73
2022/03/08 07:01:49;;;;;;;44.90;16.77;;;;;;;;;;4970102;28;100076;-73
2022/03/08 07:04:17;;;;;;;42.05;18.13;;;;;;;;;;4969783;28;100157;-71
2022/03/08 07:06:49;;;;;;;40.17;17.55;;;;;;;;;;4952866;28;100572;-71
2022/03/08 07:09:16;;;;;;;58.03;21.40;;;;;;;;;;4968715;28;100124;-72
2022/03/08 07:11:43;;;;;;;54.92;23.63;;;;;;;;;;4952634;28;100033;-73
2022/03/08 07:14:15;;;;;;;51.10;23.40;;;;;;;;;;4968310;28;100103;-71
2022/03/08 07:16:42;;;;;;;67.22;27.88;;;;;;;;;;4969500;28;100535;-71
2022/03/08 07:19:09;;;;;;;56.17;23.17;;;;;;;;;;4951694;28;100155;-71
2022/03/08 07:21:36;;;;;;;50.83;22.20;;;;;;;;;;4969769;28;100112;-71
2022/03/08 07:24:03;;;;;;;61.38;24.85;;;;;;;;;;4969547;28;100786;-71
2022/03/08 07:26:30;;;;;;;55.75;24.50;;;;;;;;;;4969507;28;101108;-71
2022/03/08 07:28:57;;;;;;;51.70;21.13;;;;;;;;;;4968325;28;100144;-71
2022/03/08 07:31:23;;;;;;;66.63;25.45;;;;;;;;;;4969468;28;100034;-71
2022/03/08 07:33:51;;;;;;;53.25;22.17;;;;;;;;;;4951954;28;103489;-71
2022/03/08 07:36:18;;;;;;;55.03;21.85;;;;;;;;;;4984601;28;100749;-72
2022/03/08 07:38:45;;;;;;;56.13;20.83;;;;;;;;;;4963925;28;100123;-72
2022/03/08 07:41:11;;;;;;;40.30;17.95;;;;;;;;;;4968430;28;100068;-73
2022/03/08 07:43:39;;;;;;;51.70;19.35;;;;;;;;;;4950952;28;100158;-73
2022/03/08 07:46:08;;;;;;;45.83;18.50;;;;;;;;;;4969191;28;100606;-73
2022/03/08 07:48:35;;;;;;;41.67;18.75;;;;;;;;;;4935944;28;100163;-73
2022/03/08 07:51:02;;;;;;;28.50;14.05;;;;;;;;;;4967171;28;101039;-73
2022/03/08 07:53:30;;;;;;;47.95;18.42;;;;;;;;;;4968967;28;100146;-73
2022/03/08 07:55:57;;;;;;;42.40;16.35;;;;;;;;;;4968155;28;100755;-73
2022/03/08 07:58:24;;;;;;;49.22;19.75;;;;;;;;;;4967788;28;100067;-71
2022/03/08 08:00:51;;;;;;;36.95;16.77;;;;;;;;;;4957585;28;100425;-72
2022/03/08 08:03:18;;;;;;;38.20;16.30;;;;;;;;;;4963210;28;100624;-72
2022/03/08 08:05:45;;;;;;;41.03;16.90;;;;;;;;;;4967435;28;101723;-72
2022/03/08 08:08:12;;;;;;;32.33;15.02;;;;;;;;;;4932207;28;100253;-72
2022/03/08 08:10:39;;;;;;;34.63;14.75;;;;;;;;;;4965151;28;100033;-72
2022/03/08 08:13:06;;;;;;;39.05;15.20;;;;;;;;;;4968293;28;100442;-72
2022/03/08 08:15:36;;;;;;;33.58;15.63;;;;;;;;;;4967940;28;100569;-72
2022/03/08 08:18:09;;;;;;;41.72;17.02;;;;;;;;;;4968003;28;100228;-72
2022/03/08 08:20:36;;;;;;;34.33;15.02;;;;;;;;;;4950527;28;100579;-72
2022/03/08 08:23:03;;;;;;;34.88;15.52;;;;;;;;;;4966781;28;100220;-72
2022/03/08 08:25:29;;;;;;;29.25;13.43;;;;;;;;;;4970453;28;101086;-72
2022/03/08 08:27:56;;;;;;;39.60;16.48;;;;;;;;;;4954858;28;100107;-72
2022/03/08 08:30:23;;;;;;;35.70;14.18;;;;;;;;;;4955113;28;100101;-76
2022/03/08 08:32:53;;;;;;;32.83;13.77;;;;;;;;;;4968478;28;100236;-72
2022/03/08 08:35:20;;;;;;;34.55;14.77;;;;;;;;;;4972166;28;100748;-73
2022/03/08 08:37:46;;;;;;;36.05;14.65;;;;;;;;;;4970145;28;103108;-71
2022/03/08 08:40:14;;;;;;;39.70;15.30;;;;;;;;;;4985728;28;100227;-71
2022/03/08 08:42:41;;;;;;;41.38;17.38;;;;;;;;;;4971107;28;100080;-71
2022/03/08 08:45:08;;;;;;;31.65;14.68;;;;;;;;;;4969121;28;100666;-72
2022/03/08 08:47:35;;;;;;;35.75;15.00;;;;;;;;;;4970100;28;100049;-71
2022/03/08 08:50:03;;;;;;;33.78;13.35;;;;;;;;;;4952842;28;100309;-71
2022/03/08 08:52:30;;;;;;;29.65;13.07;;;;;;;;;;4970718;28;100160;-71
2022/03/08 08:54:57;;;;;;;31.77;14.73;;;;;;;;;;4969078;28;101202;-71
2022/03/08 08:57:24;;;;;;;36.58;14.70;;;;;;;;;;4970000;28;100174;-71
2022/03/08 08:59:50;;;;;;;40.97;16.95;;;;;;;;;;4970792;28;100014;-71
2022/03/08 09:02:17;;;;;;;37.92;16.95;;;;;;;;;;4969193;28;100155;-71
2022/03/08 09:04:44;;;;;;;43.38;19.30;;;;;;;;;;4969212;28;101827;-72
2022/03/08 09:07:11;;;;;;;48.63;19.77;;;;;;;;;;4968063;28;101825;-72
2022/03/08 09:09:38;;;;;;;46.47;20.05;;;;;;;;;;4962705;28;101426;-72
2022/03/08 09:12:07;;;;;;;49.60;20.33;;;;;;;;;;4944716;28;101528;-72
2022/03/08 09:14:35;;;;;;;58.25;21.35;;;;;;;;;;4964647;28;100940;-70
2022/03/08 09:17:02;;;;;;;63.72;24.52;;;;;;;;;;4963803;28;100246;-69
2022/03/08 09:19:29;;;;;;;58.53;23.38;;;;;;;;;;4969960;28;100121;-71
2022/03/08 09:21:56;;;;;;;56.45;22.38;;;;;;;;;;4969952;28;100752;-71
2022/03/08 09:24:22;;;;;;;63.55;26.33;;;;;;;;;;4985184;28;101580;-71
2022/03/08 09:26:49;;;;;;;68.72;26.63;;;;;;;;;;4970492;28;100119;-71
2022/03/08 09:29:17;;;;;;;65.60;26.42;;;;;;;;;;4968732;28;100347;-72
2022/03/08 09:31:45;;;;;;;77.07;28.38;;;;;;;;;;4970793;28;100485;-72
2022/03/08 09:34:12;;;;;;;67.03;25.90;;;;;;;;;;4970123;28;100776;-71
2022/03/08 09:36:39;;;;;;;75.22;28.95;;;;;;;;;;4953651;28;100178;-73
2022/03/08 09:39:05;;;;;;;71.78;28.40;;;;;;;;;;4970369;28;101277;-72
2022/03/08 09:41:32;;;;;;;74.85;28.08;;;;;;;;;;4969670;28;100609;-72
2022/03/08 09:43:59;;;;;;;68.70;25.80;;;;;;;;;;4951484;28;100570;-71
2022/03/08 09:46:26;;;;;;;70.07;26.15;;;;;;;;;;4969962;28;100192;-71
2022/03/08 09:48:53;;;;;;;69.07;28.30;;;;;;;;;;4970432;28;100085;-71
2022/03/08 09:51:20;;;;;;;65.40;26.42;;;;;;;;;;4968307;28;103127;-71
2022/03/08 09:53:49;;;;;;;72.80;26.95;;;;;;;;;;4970088;28;101800;-71
2022/03/08 09:56:18;;;;;;;75.28;27.52;;;;;;;;;;4953263;28;100111;-71
2022/03/08 09:58:46;;;;;;;65.38;26.77;;;;;;;;;;4970214;28;100117;-71
2022/03/08 10:01:13;;;;;;;62.40;24.30;;;;;;;;;;4970522;28;100838;-71
2022/03/08 10:03:43;;;;;;;65.53;24.80;;;;;;;;;;4970472;28;100602;-72
2022/03/08 10:06:10;;;;;;;65.82;24.05;;;;;;;;;;4968767;28;100161;-71
2022/03/08 10:08:37;;;;;;;68.25;27.25;;;;;;;;;;4951273;28;100304;-72
2022/03/08 10:11:11;;;;;;;70.10;28.70;;;;;;;;;;4967755;28;100606;-72
2022/03/08 10:13:49;;;;;;;81.10;29.67;;;;;;;;;;4968066;28;100609;-71
2022/03/08 10:16:23;;;;;;;62.28;25.33;;;;;;;;;;4970179;28;100055;-72
2022/03/08 10:18:53;;;;;;;75.85;26.23;;;;;;;;;;4970093;28;100005;-71
2022/03/08 10:21:35;;;;;;;61.60;23.70;;;;;;;;;;4969551;28;100861;-73
2022/03/08 10:24:22;;;;;;;63.75;25.15;;;;;;;;;;4968730;28;100560;-71
2022/03/08 10:27:00;;;;;;;53.67;22.65;;;;;;;;;;4968491;28;100182;-71
2022/03/08 10:29:36;;;;;;;50.00;19.08;;;;;;;;;;4969064;28;100188;-71
2022/03/08 10:32:23;;;;;;;40.05;18.25;;;;;;;;;;4969552;28;100458;-71
2022/03/08 10:34:54;;;;;;;38.72;16.90;;;;;;;;;;4968239;28;101938;-71
2022/03/08 10:37:23;;;;;;;36.15;14.75;;;;;;;;;;4967964;28;100120;-72
2022/03/08 10:39:55;;;;;;;39.95;15.90;;;;;;;;;;4967718;28;100170;-71
2022/03/08 10:42:26;;;;;;;36.97;16.10;;;;;;;;;;4968639;28;100327;-71
2022/03/08 10:45:07;;;;;;;40.83;16.02;;;;;;;;;;4967613;28;100947;-72
2022/03/08 10:47:53;;;;;;;37.80;15.82;;;;;;;;;;4952295;28;100014;-70
2022/03/08 10:50:31;;;;;;;37.95;15.18;;;;;;;;;;4967078;28;100248;-73
2022/03/08 10:52:58;;;;;;;40.08;16.10;;;;;;;;;;4967761;28;100745;-72
2022/03/08 10:55:58;;;;;;;32.20;12.00;;;;;;;;;;4970021;28;100838;-71
2022/03/08 10:58:25;;;;;;;29.42;12.13;;;;;;;;;;4973373;28;100072;-71
2022/03/08 11:00:53;;;;;;;30.83;13.70;;;;;;;;;;4969311;28;100040;-72
2022/03/08 11:03:21;;;;;;;27.75;11.65;;;;;;;;;;4966881;28;100688;-72
2022/03/08 11:05:53;;;;;;;28.73;12.23;;;;;;;;;;4935032;28;100730;-72
2022/03/08 11:08:21;;;;;;;30.02;12.20;;;;;;;;;;4951316;28;100168;-72
2022/03/08 11:10:48;;;;;;;27.95;11.70;;;;;;;;;;4967110;28;100096;-72
2022/03/08 11:13:16;;;;;;;31.67;13.30;;;;;;;;;;4966482;28;102304;-72
2022/03/08 11:15:45;;;;;;;29.88;11.80;;;;;;;;;;4967648;28;101052;-72
2022/03/08 11:18:14;;;;;;;24.88;10.00;;;;;;;;;;4968603;28;100170;-74
2022/03/08 11:20:42;;;;;;;24.40;10.27;;;;;;;;;;4968129;28;100195;-72
2022/03/08 11:23:09;;;;;;;25.13;11.30;;;;;;;;;;4967578;28;100393;-73
2022/03/08 11:25:41;;;;;;;24.73;10.73;;;;;;;;;;4967935;28;101118;-72
2022/03/08 11:28:18;;;;;;;26.38;10.10;;;;;;;;;;4968729;28;100036;-72
2022/03/08 11:30:47;;;;;;;20.58;9.48;;;;;;;;;;4968286;28;100394;-74
2022/03/08 11:33:39;;;;;;;18.00;6.65;;;;;;;;;;4968497;28;100970;-72
2022/03/08 11:36:16;;;;;;;16.00;7.40;;;;;;;;;;4965372;28;101732;-72
2022/03/08 11:38:43;;;;;;;14.20;6.43;;;;;;;;;;4969355;28;100125;-71
2022/03/08 11:41:10;;;;;;;16.27;6.50;;;;;;;;;;4967670;28;101784;-71
2022/03/08 11:43:45;;;;;;;16.70;7.68;;;;;;;;;;4950381;28;100330;-72
2022/03/08 11:46:16;;;;;;;17.75;6.80;;;;;;;;;;4969081;28;100812;-72
2022/03/08 11:49:00;;;;;;;21.52;8.77;;;;;;;;;;4968262;28;100282;-71
2022/03/08 11:51:28;;;;;;;16.70;7.28;;;;;;;;;;4967128;28;100361;-71
2022/03/08 11:54:05;;;;;;;24.25;9.30;;;;;;;;;;4967182;28;100725;-71
2022/03/08 11:56:49;;;;;;;20.42;8.70;;;;;;;;;;4967930;28;100601;-72
2022/03/08 11:59:16;;;;;;;21.70;9.30;;;;;;;;;;4950293;28;101429;-72
2022/03/08 12:01:43;;;;;;;20.00;9.10;;;;;;;;;;4954641;28;100107;-72
2022/03/08 12:04:14;;;;;;;21.70;9.25;;;;;;;;;;4954377;28;102225;-72
2022/03/08 12:06:47;;;;;;;23.83;9.68;;;;;;;;;;4971663;28;100673;-72
2022/03/08 12:09:16;;;;;;;20.35;9.45;;;;;;;;;;4955209;28;100221;-72
2022/03/08 12:11:43;;;;;;;18.48;8.48;;;;;;;;;;4971267;28;102365;-71
2022/03/08 12:14:31;;;;;;;19.20;9.13;;;;;;;;;;4970263;28;101321;-71
2022/03/08 12:17:12;;;;;;;21.83;9.38;;;;;;;;;;4969325;28;100725;-71
2022/03/08 12:19:47;;;;;;;22.02;8.60;;;;;;;;;;4970051;28;100129;-71
2022/03/08 12:22:16;;;;;;;16.92;6.75;;;;;;;;;;4954058;28;100228;-72
2022/03/08 12:24:48;;;;;;;17.75;7.80;;;;;;;;;;4970705;28;100261;-71
2022/03/08 12:27:16;;;;;;;18.27;7.10;;;;;;;;;;4971309;28;101041;-71
2022/03/08 12:30:09;;;;;;;17.42;8.40;;;;;;;;;;4971456;28;100196;-73
2022/03/08 12:32:37;;;;;;;14.88;6.53;;;;;;;;;;4970557;28;100122;-72
2022/03/08 12:35:20;;;;;;;13.50;6.40;;;;;;;;;;4970067;28;101710;-70
2022/03/08 12:37:51;;;;;;;17.45;7.38;;;;;;;;;;4971716;28;100607;-71
2022/03/08 12:40:38;;;;;;;14.68;6.30;;;;;;;;;;4970427;28;100253;-71
2022/03/08 12:43:10;;;;;;;16.52;6.25;;;;;;;;;;4969943;28;100039;-72
2022/03/08 12:45:45;;;;;;;15.43;6.07;;;;;;;;;;4939556;28;100828;-72
2022/03/08 12:48:15;;;;;;;9.18;5.00;;;;;;;;;;4970057;28;101792;-71
2022/03/08 12:50:49;;;;;;;13.02;5.22;;;;;;;;;;4920985;28;100208;-72
2022/03/08 12:53:24;;;;;;;14.68;5.75;;;;;;;;;;4970654;28;100005;-72
2022/03/08 12:55:55;;;;;;;10.95;5.18;;;;;;;;;;4970726;28;100581;-71
2022/03/08 12:58:24;;;;;;;11.25;5.55;;;;;;;;;;4969669;28;100650;-71
2022/03/08 13:00:59;;;;;;;14.40;6.45;;;;;;;;;;4971483;28;100049;-72
2022/03/08 13:03:29;;;;;;;12.93;5.50;;;;;;;;;;4954167;28;100035;-73
2022/03/08 13:05:57;;;;;;;11.38;4.93;;;;;;;;;;4970018;28;100127;-72
2022/03/08 13:08:26;;;;;;;12.85;5.07;;;;;;;;;;4969004;28;101049;-72
2022/03/08 13:10:57;;;;;;;10.85;4.38;;;;;;;;;;4969039;28;100296;-72
2022/03/08 13:13:44;;;;;;;12.02;5.63;;;;;;;;;;4956829;28;100532;-72
2022/03/08 13:16:14;;;;;;;13.55;5.57;;;;;;;;;;4968931;28;100230;-72
2022/03/08 13:18:41;;;;;;;14.18;6.03;;;;;;;;;;4953733;28;101240;-73
2022/03/08 13:21:10;;;;;;;12.15;5.20;;;;;;;;;;4970238;28;99886;-72
2022/03/08 13:23:39;;;;;;;15.00;6.10;;;;;;;;;;4969535;28;100175;-72
2022/03/08 13:26:07;;;;;;;13.63;6.75;;;;;;;;;;4969442;28;100196;-72
2022/03/08 13:28:38;;;;;;;14.45;6.15;;;;;;;;;;4953776;28;101555;-71
2022/03/08 13:31:06;;;;;;;16.45;8.43;;;;;;;;;;4969430;28;100259;-71
2022/03/08 13:33:34;;;;;;;17.23;7.38;;;;;;;;;;4970462;28;100009;-71
2022/03/08 13:36:04;;;;;;;15.48;7.05;;;;;;;;;;4970268;28;100756;-72
2022/03/08 13:38:41;;;;;;;14.35;7.10;;;;;;;;;;4985815;28;100699;-73
2022/03/08 13:41:18;;;;;;;21.83;8.73;;;;;;;;;;4953536;28;100081;-72
2022/03/08 13:43:49;;;;;;;19.98;8.63;;;;;;;;;;4971323;28;100021;-71
2022/03/08 13:46:18;;;;;;;18.90;7.72;;;;;;;;;;4970000;28;101335;-71
2022/03/08 13:48:50;;;;;;;27.58;9.88;;;;;;;;;;4953173;28;100924;-72
2022/03/08 13:51:17;;;;;;;19.05;8.43;;;;;;;;;;4969551;28;100260;-71
2022/03/08 13:53:44;;;;;;;18.52;7.60;;;;;;;;;;4968963;28;100108;-72
2022/03/08 13:56:11;;;;;;;15.30;6.85;;;;;;;;;;4951194;28;100326;-72
2022/03/08 13:58:43;;;;;;;18.23;8.13;;;;;;;;;;4970319;28;101061;-72
2022/03/08 14:01:12;;;;;;;14.65;6.40;;;;;;;;;;4969740;28;99892;-73
2022/03/08 14:03:40;;;;;;;15.68;7.25;;;;;;;;;;4953073;28;100164;-72
2022/03/08 14:06:11;;;;;;;16.45;6.82;;;;;;;;;;4953137;28;100201;-72
2022/03/08 14:08:44;;;;;;;17.25;8.00;;;;;;;;;;4969374;28;100537;-72
2022/03/08 14:11:16;;;;;;;15.00;7.10;;;;;;;;;;4969196;28;100127;-72
2022/03/08 14:13:54;;;;;;;15.55;6.80;;;;;;;;;;4968385;28;102312;-72
2022/03/08 14:16:42;;;;;;;17.08;7.45;;;;;;;;;;4968986;28;100523;-73